Terminal Aerodrome Forecast
Issued by NWS Boston, MA

Current Version | Previous Version | Text Only | Print | Product List | Glossary On
Versions: 1 2 3 4 5 6 7 8 9 10 11 12 13 14 15 16 17 18 19 20 21 22 23 24 25 26 27
000 FTUS41 KBOX 191121 TAFBOS TAF KBOS 191121Z 1912/2018 31004KT P6SM OVC025 FM191400 30005KT P6SM OVC035 FM191900 29006KT P6SM FEW040 FM201700 00000KT P6SM BKN200=

USA.gov is the U.S. government's official web portal to all federal, state and local government web resources and services.